Vancourt, Texas
Current Conditions -  °F | °C
As of 7:51 AM on Wednesday 28 Jan 2015 (Local Time) from KSJT Reporting Station
Clear Clear  
Wind Chill: 44°   Ceiling: Unl
Heat Index: 44°   Visibility: 10mi
Dew Point: 37°   Wind: 3mph
Humidity: 76%   Direction: 250°WSW
Pressure: 30.14"   Gusts: NA
Location:  31.34°N, 100.18°W
Report Text: KSJT 281351Z 25003KT 10SM CLR 07/03 A3014 RMK AO2 SLP207 T00670028
Loading
Personal Weather Stations






























Interactive Weather Map New forecast layout! Learn more

10-Day Weather Forecast

Advertisements
Track Severe Weather on mobile